Weather at Sargent Municipal Airport

Public forecast

Using degrees Fahrenheit for public forecast. Weather courtesy of forecast.io.

Closest aviation weather report (METAR) to Sargent Municipal Airport

Closest report is Evelyn Sharp Field, 17.4 nm (32.3 km) E. Retrieved 2020/11/29 11:53 UTC (55 minutes ago):

KODX 291153Z AUTO 34019G34KT 10SM CLR 02/M06 A3023 RMK AO2 PK WND 35034/1147 SLP255 T00171056 10061 21022 53041

Closest aviation forecast (TAF) to Sargent Municipal Airport

Closest forecast is Kearney Regional Airport, 56.7 nm (105.0 km) SSE. Retrieved 2020/11/29 12:24 UTC (24 minutes ago):

TAF KEAR 291121Z 2912/3012 36022G34KT P6SM SKC WS010/01065KT FM291500 35025G40KT P6SM SCT250 FM292000 35022G33KT P6SM SCT250 FM300100 33013KT P6SM SKC